Terminal Aerodrome Forecast
Issued by NWS

Home | Current Version | Previous Version | Text Only | Print | Product List | Glossary On
Versions: 1 2 3 4 5 6 7 8 9 10 11 12 13 14
880
FTUS45 KVEF 250535
TAFEED
TAF
KEED 250535Z 2506/2606 23010KT P6SM SCT150 BKN200
     FM251300 26009KT P6SM SCT100 BKN150
     FM251600 31012KT P6SM BKN100
     FM260100 31008KT P6SM SCT100=

USA.gov is the U.S. government's official web portal to all federal, state and local government web resources and services.